sensor_id;sensor_type;location;lat;lon;timestamp;temperature;humidity
8953;DHT22;4511;50.890;8.054;2023-08-12T00:00:47;20.80;99.90
8953;DHT22;4511;50.890;8.054;2023-08-12T00:03:14;20.80;99.90
8953;DHT22;4511;50.890;8.054;2023-08-12T00:05:40;20.80;99.90
8953;DHT22;4511;50.890;8.054;2023-08-12T00:08:08;20.80;99.90
8953;DHT22;4511;50.890;8.054;2023-08-12T00:10:35;20.80;99.90
8953;DHT22;4511;50.890;8.054;2023-08-12T00:13:03;20.90;99.90
8953;DHT22;4511;50.890;8.054;2023-08-12T00:15:30;20.80;99.90
8953;DHT22;4511;50.890;8.054;2023-08-12T00:17:57;20.80;99.90
8953;DHT22;4511;50.890;8.054;2023-08-12T00:20:24;20.80;99.90
8953;DHT22;4511;50.890;8.054;2023-08-12T00:22:51;20.80;99.90
8953;DHT22;4511;50.890;8.054;2023-08-12T00:25:17;20.70;99.90
8953;DHT22;4511;50.890;8.054;2023-08-12T00:27:44;20.60;99.90
8953;DHT22;4511;50.890;8.054;2023-08-12T00:30:13;20.60;99.90
8953;DHT22;4511;50.890;8.054;2023-08-12T00:32:41;20.50;99.90
8953;DHT22;4511;50.890;8.054;2023-08-12T00:35:08;20.50;99.90
8953;DHT22;4511;50.890;8.054;2023-08-12T00:37:35;20.50;99.90
8953;DHT22;4511;50.890;8.054;2023-08-12T00:40:03;20.60;99.90
8953;DHT22;4511;50.890;8.054;2023-08-12T00:42:29;20.70;99.90
8953;DHT22;4511;50.890;8.054;2023-08-12T00:44:57;20.70;99.90
8953;DHT22;4511;50.890;8.054;2023-08-12T00:47:26;20.60;99.90
8953;DHT22;4511;50.890;8.054;2023-08-12T00:49:53;20.60;99.90
8953;DHT22;4511;50.890;8.054;2023-08-12T00:52:21;20.60;99.90
8953;DHT22;4511;50.890;8.054;2023-08-12T00:54:48;20.60;99.90
8953;DHT22;4511;50.890;8.054;2023-08-12T00:57:15;20.70;99.90
8953;DHT22;4511;50.890;8.054;2023-08-12T00:59:44;20.70;99.90
8953;DHT22;4511;50.890;8.054;2023-08-12T01:02:12;20.70;99.90
8953;DHT22;4511;50.890;8.054;2023-08-12T01:04:40;20.60;99.90
8953;DHT22;4511;50.890;8.054;2023-08-12T01:07:07;20.60;99.90
8953;DHT22;4511;50.890;8.054;2023-08-12T01:09:34;20.50;99.90
8953;DHT22;4511;50.890;8.054;2023-08-12T01:12:05;20.50;99.90
8953;DHT22;4511;50.890;8.054;2023-08-12T01:14:38;20.50;99.90
8953;DHT22;4511;50.890;8.054;2023-08-12T01:17:08;20.50;99.90
8953;DHT22;4511;50.890;8.054;2023-08-12T01:19:37;20.50;99.90
8953;DHT22;4511;50.890;8.054;2023-08-12T01:22:11;20.40;99.90
8953;DHT22;4511;50.890;8.054;2023-08-12T01:24:40;20.30;99.90
8953;DHT22;4511;50.890;8.054;2023-08-12T01:27:09;20.30;99.90
8953;DHT22;4511;50.890;8.054;2023-08-12T01:29:41;20.20;99.90
8953;DHT22;4511;50.890;8.054;2023-08-12T01:32:11;20.30;99.90
8953;DHT22;4511;50.890;8.054;2023-08-12T01:34:46;20.30;99.90
8953;DHT22;4511;50.890;8.054;2023-08-12T01:37:20;20.30;99.90
8953;DHT22;4511;50.890;8.054;2023-08-12T01:39:50;20.40;99.90
8953;DHT22;4511;50.890;8.054;2023-08-12T01:42:19;20.30;99.90
8953;DHT22;4511;50.890;8.054;2023-08-12T01:44:46;20.30;99.90
8953;DHT22;4511;50.890;8.054;2023-08-12T01:47:13;20.30;99.90
8953;DHT22;4511;50.890;8.054;2023-08-12T01:49:40;20.20;99.90
8953;DHT22;4511;50.890;8.054;2023-08-12T01:52:06;20.20;99.90
8953;DHT22;4511;50.890;8.054;2023-08-12T01:54:33;20.20;99.90
8953;DHT22;4511;50.890;8.054;2023-08-12T01:57:03;20.30;99.90
8953;DHT22;4511;50.890;8.054;2023-08-12T01:59:31;20.30;99.90
8953;DHT22;4511;50.890;8.054;2023-08-12T02:01:58;20.20;99.90
8953;DHT22;4511;50.890;8.054;2023-08-12T02:04:25;20.30;99.90
8953;DHT22;4511;50.890;8.054;2023-08-12T02:06:52;20.30;99.90
8953;DHT22;4511;50.890;8.054;2023-08-12T02:09:19;20.30;99.90
8953;DHT22;4511;50.890;8.054;2023-08-12T02:11:46;20.30;99.90
8953;DHT22;4511;50.890;8.054;2023-08-12T02:14:14;20.30;99.90
8953;DHT22;4511;50.890;8.054;2023-08-12T02:16:41;20.30;99.90
8953;DHT22;4511;50.890;8.054;2023-08-12T02:19:08;20.30;99.90
8953;DHT22;4511;50.890;8.054;2023-08-12T02:21:35;20.20;99.90
8953;DHT22;4511;50.890;8.054;2023-08-12T02:24:02;20.20;99.90
8953;DHT22;4511;50.890;8.054;2023-08-12T02:26:28;20.10;99.90
8953;DHT22;4511;50.890;8.054;2023-08-12T02:28:56;19.90;99.90
8953;DHT22;4511;50.890;8.054;2023-08-12T02:31:24;19.80;99.90
8953;DHT22;4511;50.890;8.054;2023-08-12T02:33:51;19.80;99.90
8953;DHT22;4511;50.890;8.054;2023-08-12T02:36:18;19.90;99.90
8953;DHT22;4511;50.890;8.054;2023-08-12T02:38:45;19.90;99.90
8953;DHT22;4511;50.890;8.054;2023-08-12T02:41:11;19.90;99.90
8953;DHT22;4511;50.890;8.054;2023-08-12T02:43:38;19.80;99.90
8953;DHT22;4511;50.890;8.054;2023-08-12T02:46:05;19.70;99.90
8953;DHT22;4511;50.890;8.054;2023-08-12T02:48:34;19.50;99.90
8953;DHT22;4511;50.890;8.054;2023-08-12T02:51:02;19.40;99.90
8953;DHT22;4511;50.890;8.054;2023-08-12T02:53:28;19.60;99.90
8953;DHT22;4511;50.890;8.054;2023-08-12T02:55:55;19.70;99.90
8953;DHT22;4511;50.890;8.054;2023-08-12T02:58:22;19.70;99.90
8953;DHT22;4511;50.890;8.054;2023-08-12T03:00:49;19.70;99.90
8953;DHT22;4511;50.890;8.054;2023-08-12T03:03:15;19.70;99.90
8953;DHT22;4511;50.890;8.054;2023-08-12T03:05:46;19.70;99.90
8953;DHT22;4511;50.890;8.054;2023-08-12T03:08:13;19.70;99.90
8953;DHT22;4511;50.890;8.054;2023-08-12T03:10:40;19.70;99.90
8953;DHT22;4511;50.890;8.054;2023-08-12T03:13:08;19.70;99.90
8953;DHT22;4511;50.890;8.054;2023-08-12T03:15:34;19.60;99.90
8953;DHT22;4511;50.890;8.054;2023-08-12T03:18:04;19.70;99.90
8953;DHT22;4511;50.890;8.054;2023-08-12T03:20:31;19.70;99.90
8953;DHT22;4511;50.890;8.054;2023-08-12T03:22:59;19.80;99.90
8953;DHT22;4511;50.890;8.054;2023-08-12T03:25:26;19.80;99.90
8953;DHT22;4511;50.890;8.054;2023-08-12T03:27:53;19.80;99.90
8953;DHT22;4511;50.890;8.054;2023-08-12T03:30:20;19.80;99.90
8953;DHT22;4511;50.890;8.054;2023-08-12T03:32:47;19.80;99.90
8953;DHT22;4511;50.890;8.054;2023-08-12T03:35:14;19.70;99.90
8953;DHT22;4511;50.890;8.054;2023-08-12T03:37:40;19.70;99.90
8953;DHT22;4511;50.890;8.054;2023-08-12T03:40:10;19.70;99.90
8953;DHT22;4511;50.890;8.054;2023-08-12T03:42:37;19.70;99.90
8953;DHT22;4511;50.890;8.054;2023-08-12T03:45:04;19.70;99.90
8953;DHT22;4511;50.890;8.054;2023-08-12T03:47:31;19.70;99.90
8953;DHT22;4511;50.890;8.054;2023-08-12T03:49:58;19.80;99.90
8953;DHT22;4511;50.890;8.054;2023-08-12T03:52:25;19.70;99.90
8953;DHT22;4511;50.890;8.054;2023-08-12T03:54:52;19.70;99.90
8953;DHT22;4511;50.890;8.054;2023-08-12T03:57:20;19.80;99.90
8953;DHT22;4511;50.890;8.054;2023-08-12T03:59:47;19.70;99.90
8953;DHT22;4511;50.890;8.054;2023-08-12T04:02:14;19.70;99.90
8953;DHT22;4511;50.890;8.054;2023-08-12T04:04:41;19.70;99.90
8953;DHT22;4511;50.890;8.054;2023-08-12T04:07:09;19.60;99.90
8953;DHT22;4511;50.890;8.054;2023-08-12T04:09:36;19.50;99.90
8953;DHT22;4511;50.890;8.054;2023-08-12T04:12:03;19.50;99.90
8953;DHT22;4511;50.890;8.054;2023-08-12T04:14:31;19.50;99.90
8953;DHT22;4511;50.890;8.054;2023-08-12T04:16:58;19.50;99.90
8953;DHT22;4511;50.890;8.054;2023-08-12T04:19:25;19.50;99.90
8953;DHT22;4511;50.890;8.054;2023-08-12T04:21:51;19.60;99.90
8953;DHT22;4511;50.890;8.054;2023-08-12T04:24:18;19.60;99.90
8953;DHT22;4511;50.890;8.054;2023-08-12T04:26:45;19.70;99.90
8953;DHT22;4511;50.890;8.054;2023-08-12T04:29:12;19.70;99.90
8953;DHT22;4511;50.890;8.054;2023-08-12T04:31:40;19.80;99.90
8953;DHT22;4511;50.890;8.054;2023-08-12T04:34:07;19.70;99.90
8953;DHT22;4511;50.890;8.054;2023-08-12T04:36:34;19.60;99.90
8953;DHT22;4511;50.890;8.054;2023-08-12T04:39:00;19.50;99.90
8953;DHT22;4511;50.890;8.054;2023-08-12T04:41:27;19.50;99.90
8953;DHT22;4511;50.890;8.054;2023-08-12T04:43:55;19.60;99.90
8953;DHT22;4511;50.890;8.054;2023-08-12T04:46:22;19.60;99.90
8953;DHT22;4511;50.890;8.054;2023-08-12T04:48:50;19.60;99.90
8953;DHT22;4511;50.890;8.054;2023-08-12T04:51:17;19.70;99.90
8953;DHT22;4511;50.890;8.054;2023-08-12T04:53:44;19.70;99.90
8953;DHT22;4511;50.890;8.054;2023-08-12T04:56:11;19.70;99.90
8953;DHT22;4511;50.890;8.054;2023-08-12T04:58:37;19.70;99.90
8953;DHT22;4511;50.890;8.054;2023-08-12T05:01:04;19.50;99.90
8953;DHT22;4511;50.890;8.054;2023-08-12T05:03:31;19.50;99.90
8953;DHT22;4511;50.890;8.054;2023-08-12T05:05:59;19.50;99.90
8953;DHT22;4511;50.890;8.054;2023-08-12T05:08:26;19.50;99.90
8953;DHT22;4511;50.890;8.054;2023-08-12T05:10:53;19.60;99.90
8953;DHT22;4511;50.890;8.054;2023-08-12T05:13:20;19.60;99.90
8953;DHT22;4511;50.890;8.054;2023-08-12T05:15:49;19.60;99.90
8953;DHT22;4511;50.890;8.054;2023-08-12T05:18:16;19.60;99.90
8953;DHT22;4511;50.890;8.054;2023-08-12T05:20:42;19.50;99.90
8953;DHT22;4511;50.890;8.054;2023-08-12T05:23:11;19.50;99.90
8953;DHT22;4511;50.890;8.054;2023-08-12T05:25:38;19.40;99.90
8953;DHT22;4511;50.890;8.054;2023-08-12T05:28:06;19.30;99.90
8953;DHT22;4511;50.890;8.054;2023-08-12T05:30:34;19.40;99.90
8953;DHT22;4511;50.890;8.054;2023-08-12T05:33:00;19.30;99.90
8953;DHT22;4511;50.890;8.054;2023-08-12T05:35:28;19.40;99.90
8953;DHT22;4511;50.890;8.054;2023-08-12T05:37:54;19.50;99.90
8953;DHT22;4511;50.890;8.054;2023-08-12T05:40:23;19.60;99.90
8953;DHT22;4511;50.890;8.054;2023-08-12T05:42:49;19.40;99.90
8953;DHT22;4511;50.890;8.054;2023-08-12T05:45:16;19.50;99.90
8953;DHT22;4511;50.890;8.054;2023-08-12T05:47:43;19.60;99.90
8953;DHT22;4511;50.890;8.054;2023-08-12T05:50:10;19.60;99.90
8953;DHT22;4511;50.890;8.054;2023-08-12T05:52:37;19.60;99.90
8953;DHT22;4511;50.890;8.054;2023-08-12T05:55:04;19.60;99.90
8953;DHT22;4511;50.890;8.054;2023-08-12T05:57:33;19.70;99.90
8953;DHT22;4511;50.890;8.054;2023-08-12T06:00:00;19.70;99.90
8953;DHT22;4511;50.890;8.054;2023-08-12T06:02:26;19.70;99.90
8953;DHT22;4511;50.890;8.054;2023-08-12T06:04:53;19.70;99.90
8953;DHT22;4511;50.890;8.054;2023-08-12T06:07:20;19.60;99.90
8953;DHT22;4511;50.890;8.054;2023-08-12T06:09:48;19.70;99.90
8953;DHT22;4511;50.890;8.054;2023-08-12T06:12:15;19.80;99.90
8953;DHT22;4511;50.890;8.054;2023-08-12T06:14:44;19.90;99.90
8953;DHT22;4511;50.890;8.054;2023-08-12T06:17:10;20.10;99.90
8953;DHT22;4511;50.890;8.054;2023-08-12T06:19:37;20.30;99.90
8953;DHT22;4511;50.890;8.054;2023-08-12T06:22:04;20.40;99.90
8953;DHT22;4511;50.890;8.054;2023-08-12T06:24:31;20.50;99.90
8953;DHT22;4511;50.890;8.054;2023-08-12T06:26:57;20.50;99.90
8953;DHT22;4511;50.890;8.054;2023-08-12T06:29:24;20.50;99.90
8953;DHT22;4511;50.890;8.054;2023-08-12T06:31:53;20.60;99.90
8953;DHT22;4511;50.890;8.054;2023-08-12T06:34:20;20.70;99.90
8953;DHT22;4511;50.890;8.054;2023-08-12T06:36:47;20.70;99.90
8953;DHT22;4511;50.890;8.054;2023-08-12T06:39:14;20.80;99.90
8953;DHT22;4511;50.890;8.054;2023-08-12T06:41:41;20.80;99.90
8953;DHT22;4511;50.890;8.054;2023-08-12T06:44:07;20.80;99.90
8953;DHT22;4511;50.890;8.054;2023-08-12T06:46:34;20.80;99.90
8953;DHT22;4511;50.890;8.054;2023-08-12T06:49:02;20.90;99.90
8953;DHT22;4511;50.890;8.054;2023-08-12T06:51:29;20.90;99.90
8953;DHT22;4511;50.890;8.054;2023-08-12T06:53:56;20.80;99.90
8953;DHT22;4511;50.890;8.054;2023-08-12T06:56:23;20.80;99.90
8953;DHT22;4511;50.890;8.054;2023-08-12T06:58:50;20.70;99.90
8953;DHT22;4511;50.890;8.054;2023-08-12T07:01:16;20.70;99.90
8953;DHT22;4511;50.890;8.054;2023-08-12T07:03:43;20.50;99.90
8953;DHT22;4511;50.890;8.054;2023-08-12T07:06:11;20.70;99.90
8953;DHT22;4511;50.890;8.054;2023-08-12T07:08:38;20.80;99.90
8953;DHT22;4511;50.890;8.054;2023-08-12T07:11:05;20.90;99.90
8953;DHT22;4511;50.890;8.054;2023-08-12T07:13:32;20.90;99.90
8953;DHT22;4511;50.890;8.054;2023-08-12T07:15:59;20.90;99.90
8953;DHT22;4511;50.890;8.054;2023-08-12T07:18:26;20.80;99.90
8953;DHT22;4511;50.890;8.054;2023-08-12T07:20:54;20.70;99.90
8953;DHT22;4511;50.890;8.054;2023-08-12T07:23:22;20.70;99.90
8953;DHT22;4511;50.890;8.054;2023-08-12T07:25:49;20.70;99.90
8953;DHT22;4511;50.890;8.054;2023-08-12T07:28:16;20.70;99.90
8953;DHT22;4511;50.890;8.054;2023-08-12T07:30:43;20.70;99.90
8953;DHT22;4511;50.890;8.054;2023-08-12T07:33:09;20.60;99.90
8953;DHT22;4511;50.890;8.054;2023-08-12T07:35:36;20.60;99.90
8953;DHT22;4511;50.890;8.054;2023-08-12T07:38:03;20.70;99.90
8953;DHT22;4511;50.890;8.054;2023-08-12T07:40:32;20.70;99.90
8953;DHT22;4511;50.890;8.054;2023-08-12T07:42:59;20.80;99.90
8953;DHT22;4511;50.890;8.054;2023-08-12T07:45:26;20.80;99.90
8953;DHT22;4511;50.890;8.054;2023-08-12T07:47:52;20.90;99.90
8953;DHT22;4511;50.890;8.054;2023-08-12T07:50:19;21.00;99.90
8953;DHT22;4511;50.890;8.054;2023-08-12T07:52:46;21.00;99.90
8953;DHT22;4511;50.890;8.054;2023-08-12T07:55:13;21.10;99.90
8953;DHT22;4511;50.890;8.054;2023-08-12T07:57:42;21.20;99.90
8953;DHT22;4511;50.890;8.054;2023-08-12T08:00:09;21.30;99.90
8953;DHT22;4511;50.890;8.054;2023-08-12T08:02:37;21.30;99.90
8953;DHT22;4511;50.890;8.054;2023-08-12T08:05:05;21.40;99.90
8953;DHT22;4511;50.890;8.054;2023-08-12T08:07:32;21.50;99.90
8953;DHT22;4511;50.890;8.054;2023-08-12T08:09:59;21.60;99.90
8953;DHT22;4511;50.890;8.054;2023-08-12T08:12:26;21.70;99.90
8953;DHT22;4511;50.890;8.054;2023-08-12T08:14:54;21.80;99.90
8953;DHT22;4511;50.890;8.054;2023-08-12T08:17:21;21.80;99.90
8953;DHT22;4511;50.890;8.054;2023-08-12T08:19:47;21.80;99.90
8953;DHT22;4511;50.890;8.054;2023-08-12T08:22:15;21.80;99.90
8953;DHT22;4511;50.890;8.054;2023-08-12T08:24:43;21.80;99.90
8953;DHT22;4511;50.890;8.054;2023-08-12T08:27:10;21.80;99.90
8953;DHT22;4511;50.890;8.054;2023-08-12T08:29:38;21.80;99.90
8953;DHT22;4511;50.890;8.054;2023-08-12T08:32:07;21.90;99.90
8953;DHT22;4511;50.890;8.054;2023-08-12T08:34:34;21.90;99.90
8953;DHT22;4511;50.890;8.054;2023-08-12T08:37:00;21.90;99.90
8953;DHT22;4511;50.890;8.054;2023-08-12T08:39:28;21.90;99.90
8953;DHT22;4511;50.890;8.054;2023-08-12T08:41:56;21.90;99.90
8953;DHT22;4511;50.890;8.054;2023-08-12T08:44:23;22.00;99.90
8953;DHT22;4511;50.890;8.054;2023-08-12T08:46:52;22.10;99.90
8953;DHT22;4511;50.890;8.054;2023-08-12T08:49:20;22.20;99.90
8953;DHT22;4511;50.890;8.054;2023-08-12T08:51:47;22.30;99.90
8953;DHT22;4511;50.890;8.054;2023-08-12T08:54:15;22.30;99.90
8953;DHT22;4511;50.890;8.054;2023-08-12T08:56:42;22.00;99.90
8953;DHT22;4511;50.890;8.054;2023-08-12T08:59:09;22.00;99.90
8953;DHT22;4511;50.890;8.054;2023-08-12T09:01:36;22.00;99.90
8953;DHT22;4511;50.890;8.054;2023-08-12T09:04:05;22.00;99.90
8953;DHT22;4511;50.890;8.054;2023-08-12T09:06:36;21.90;99.90
8953;DHT22;4511;50.890;8.054;2023-08-12T09:09:06;21.90;99.90
8953;DHT22;4511;50.890;8.054;2023-08-12T09:11:38;22.00;99.90
8953;DHT22;4511;50.890;8.054;2023-08-12T09:14:05;22.20;99.90
8953;DHT22;4511;50.890;8.054;2023-08-12T09:16:33;22.30;99.90
8953;DHT22;4511;50.890;8.054;2023-08-12T09:19:00;22.50;99.90
8953;DHT22;4511;50.890;8.054;2023-08-12T09:21:27;22.50;99.90
8953;DHT22;4511;50.890;8.054;2023-08-12T09:23:55;22.50;99.90
8953;DHT22;4511;50.890;8.054;2023-08-12T09:26:22;22.30;99.90
8953;DHT22;4511;50.890;8.054;2023-08-12T09:28:49;22.20;99.90
8953;DHT22;4511;50.890;8.054;2023-08-12T09:31:22;22.10;99.90
8953;DHT22;4511;50.890;8.054;2023-08-12T09:33:51;21.90;99.90
8953;DHT22;4511;50.890;8.054;2023-08-12T09:36:21;21.80;99.90
8953;DHT22;4511;50.890;8.054;2023-08-12T09:38:48;21.80;99.90
8953;DHT22;4511;50.890;8.054;2023-08-12T09:41:17;21.90;99.90
8953;DHT22;4511;50.890;8.054;2023-08-12T09:43:44;22.00;99.90
8953;DHT22;4511;50.890;8.054;2023-08-12T09:46:12;22.10;99.90
8953;DHT22;4511;50.890;8.054;2023-08-12T09:48:40;22.20;99.90
8953;DHT22;4511;50.890;8.054;2023-08-12T09:51:07;22.20;99.90
8953;DHT22;4511;50.890;8.054;2023-08-12T09:53:36;22.10;99.90
8953;DHT22;4511;50.890;8.054;2023-08-12T09:56:05;22.50;99.90
8953;DHT22;4511;50.890;8.054;2023-08-12T09:58:35;22.70;99.90
8953;DHT22;4511;50.890;8.054;2023-08-12T10:01:03;23.00;99.90
8953;DHT22;4511;50.890;8.054;2023-08-12T10:03:34;23.20;99.90
8953;DHT22;4511;50.890;8.054;2023-08-12T10:06:01;23.30;99.90
8953;DHT22;4511;50.890;8.054;2023-08-12T10:08:29;23.40;99.90
8953;DHT22;4511;50.890;8.054;2023-08-12T10:10:56;23.30;99.90
8953;DHT22;4511;50.890;8.054;2023-08-12T10:13:24;23.30;99.90
8953;DHT22;4511;50.890;8.054;2023-08-12T10:15:53;23.40;99.90
8953;DHT22;4511;50.890;8.054;2023-08-12T10:18:20;23.40;99.90
8953;DHT22;4511;50.890;8.054;2023-08-12T10:20:49;23.20;99.90
8953;DHT22;4511;50.890;8.054;2023-08-12T10:23:17;23.10;99.90
8953;DHT22;4511;50.890;8.054;2023-08-12T10:25:44;23.00;99.90
8953;DHT22;4511;50.890;8.054;2023-08-12T10:28:11;22.80;99.90
8953;DHT22;4511;50.890;8.054;2023-08-12T10:30:40;22.70;99.90
8953;DHT22;4511;50.890;8.054;2023-08-12T10:33:09;22.80;99.90
8953;DHT22;4511;50.890;8.054;2023-08-12T10:35:46;22.70;99.90
8953;DHT22;4511;50.890;8.054;2023-08-12T10:38:16;22.70;99.90
8953;DHT22;4511;50.890;8.054;2023-08-12T10:40:43;22.90;99.90
8953;DHT22;4511;50.890;8.054;2023-08-12T10:43:11;23.10;99.90
8953;DHT22;4511;50.890;8.054;2023-08-12T10:45:44;23.80;99.90
8953;DHT22;4511;50.890;8.054;2023-08-12T10:48:18;24.00;99.90
8953;DHT22;4511;50.890;8.054;2023-08-12T10:50:49;24.20;99.90
8953;DHT22;4511;50.890;8.054;2023-08-12T10:53:26;24.30;99.90
8953;DHT22;4511;50.890;8.054;2023-08-12T10:55:58;25.00;99.90
8953;DHT22;4511;50.890;8.054;2023-08-12T10:58:27;25.40;99.90
8953;DHT22;4511;50.890;8.054;2023-08-12T11:00:54;25.20;99.90
8953;DHT22;4511;50.890;8.054;2023-08-12T11:03:23;24.70;99.90
8953;DHT22;4511;50.890;8.054;2023-08-12T11:05:53;24.50;99.90
8953;DHT22;4511;50.890;8.054;2023-08-12T11:08:26;24.30;99.90
8953;DHT22;4511;50.890;8.054;2023-08-12T11:10:55;24.00;99.90
8953;DHT22;4511;50.890;8.054;2023-08-12T11:13:22;23.70;99.90
8953;DHT22;4511;50.890;8.054;2023-08-12T11:15:50;23.40;99.90
8953;DHT22;4511;50.890;8.054;2023-08-12T11:18:18;23.10;99.90
8953;DHT22;4511;50.890;8.054;2023-08-12T11:20:49;23.00;99.90
8953;DHT22;4511;50.890;8.054;2023-08-12T11:23:17;22.80;99.90
8953;DHT22;4511;50.890;8.054;2023-08-12T11:25:46;22.50;99.90
8953;DHT22;4511;50.890;8.054;2023-08-12T11:28:17;22.60;99.90
8953;DHT22;4511;50.890;8.054;2023-08-12T11:30:44;22.80;99.90
8953;DHT22;4511;50.890;8.054;2023-08-12T11:33:11;22.70;99.90
8953;DHT22;4511;50.890;8.054;2023-08-12T11:35:39;22.70;99.90
8953;DHT22;4511;50.890;8.054;2023-08-12T11:38:07;22.70;99.90
8953;DHT22;4511;50.890;8.054;2023-08-12T11:40:35;22.90;99.90
8953;DHT22;4511;50.890;8.054;2023-08-12T11:43:02;23.20;99.90
8953;DHT22;4511;50.890;8.054;2023-08-12T11:45:30;23.50;99.90
8953;DHT22;4511;50.890;8.054;2023-08-12T11:47:57;23.50;99.90
8953;DHT22;4511;50.890;8.054;2023-08-12T11:50:25;23.50;99.90
8953;DHT22;4511;50.890;8.054;2023-08-12T11:52:53;23.00;99.90
8953;DHT22;4511;50.890;8.054;2023-08-12T11:55:22;22.90;99.90
8953;DHT22;4511;50.890;8.054;2023-08-12T11:57:50;23.20;99.90
8953;DHT22;4511;50.890;8.054;2023-08-12T12:00:17;23.60;99.90
8953;DHT22;4511;50.890;8.054;2023-08-12T12:02:47;23.80;99.90
8953;DHT22;4511;50.890;8.054;2023-08-12T12:05:15;23.70;99.90
8953;DHT22;4511;50.890;8.054;2023-08-12T12:07:42;23.30;99.90
8953;DHT22;4511;50.890;8.054;2023-08-12T12:10:13;23.30;99.90
8953;DHT22;4511;50.890;8.054;2023-08-12T12:12:44;23.40;99.90
8953;DHT22;4511;50.890;8.054;2023-08-12T12:15:13;23.20;99.90
8953;DHT22;4511;50.890;8.054;2023-08-12T12:17:40;23.30;99.90
8953;DHT22;4511;50.890;8.054;2023-08-12T12:20:08;23.40;99.90
8953;DHT22;4511;50.890;8.054;2023-08-12T12:22:37;23.20;99.90
8953;DHT22;4511;50.890;8.054;2023-08-12T12:25:07;23.10;99.90
8953;DHT22;4511;50.890;8.054;2023-08-12T12:27:34;23.10;99.90
8953;DHT22;4511;50.890;8.054;2023-08-12T12:30:03;23.30;99.90
8953;DHT22;4511;50.890;8.054;2023-08-12T12:32:29;23.40;99.90
8953;DHT22;4511;50.890;8.054;2023-08-12T12:34:56;23.40;99.90
8953;DHT22;4511;50.890;8.054;2023-08-12T12:37:23;23.20;99.90
8953;DHT22;4511;50.890;8.054;2023-08-12T12:39:50;22.90;99.90
8953;DHT22;4511;50.890;8.054;2023-08-12T12:42:17;22.70;99.90
8953;DHT22;4511;50.890;8.054;2023-08-12T12:44:43;22.90;99.90
8953;DHT22;4511;50.890;8.054;2023-08-12T12:47:12;23.00;99.90
8953;DHT22;4511;50.890;8.054;2023-08-12T12:49:39;23.50;99.90
8953;DHT22;4511;50.890;8.054;2023-08-12T12:52:07;24.10;99.90
8953;DHT22;4511;50.890;8.054;2023-08-12T12:54:33;24.10;99.90
8953;DHT22;4511;50.890;8.054;2023-08-12T12:57:00;24.40;99.90
8953;DHT22;4511;50.890;8.054;2023-08-12T12:59:27;24.50;99.90
8953;DHT22;4511;50.890;8.054;2023-08-12T13:01:54;24.10;99.90
8953;DHT22;4511;50.890;8.054;2023-08-12T13:04:22;23.80;99.90
8953;DHT22;4511;50.890;8.054;2023-08-12T13:06:49;23.40;99.90
8953;DHT22;4511;50.890;8.054;2023-08-12T13:09:16;23.20;99.90
8953;DHT22;4511;50.890;8.054;2023-08-12T13:11:42;23.20;99.90
8953;DHT22;4511;50.890;8.054;2023-08-12T13:14:09;23.00;99.90
8953;DHT22;4511;50.890;8.054;2023-08-12T13:16:36;22.70;99.90
8953;DHT22;4511;50.890;8.054;2023-08-12T13:19:03;22.80;99.90
8953;DHT22;4511;50.890;8.054;2023-08-12T13:21:31;22.70;99.90
8953;DHT22;4511;50.890;8.054;2023-08-12T13:23:59;22.90;99.90
8953;DHT22;4511;50.890;8.054;2023-08-12T13:26:26;22.90;99.90
8953;DHT22;4511;50.890;8.054;2023-08-12T13:28:53;22.70;99.90
8953;DHT22;4511;50.890;8.054;2023-08-12T13:31:20;22.70;99.90
8953;DHT22;4511;50.890;8.054;2023-08-12T13:33:47;22.90;99.90
8953;DHT22;4511;50.890;8.054;2023-08-12T13:36:14;23.10;99.90
8953;DHT22;4511;50.890;8.054;2023-08-12T13:38:42;23.20;99.90
8953;DHT22;4511;50.890;8.054;2023-08-12T13:41:09;23.30;99.90
8953;DHT22;4511;50.890;8.054;2023-08-12T13:43:36;23.40;99.90
8953;DHT22;4511;50.890;8.054;2023-08-12T13:46:03;23.60;99.90
8953;DHT22;4511;50.890;8.054;2023-08-12T13:48:29;23.80;99.90
8953;DHT22;4511;50.890;8.054;2023-08-12T13:50:56;23.70;99.90
8953;DHT22;4511;50.890;8.054;2023-08-12T13:53:23;23.60;99.90
8953;DHT22;4511;50.890;8.054;2023-08-12T13:55:51;23.30;99.90
8953;DHT22;4511;50.890;8.054;2023-08-12T13:58:18;23.40;99.90
8953;DHT22;4511;50.890;8.054;2023-08-12T14:00:45;23.30;99.90
8953;DHT22;4511;50.890;8.054;2023-08-12T14:03:12;23.20;99.90
8953;DHT22;4511;50.890;8.054;2023-08-12T14:05:39;23.20;99.90
8953;DHT22;4511;50.890;8.054;2023-08-12T14:08:05;23.20;99.90
8953;DHT22;4511;50.890;8.054;2023-08-12T14:10:33;23.30;99.90
8953;DHT22;4511;50.890;8.054;2023-08-12T14:13:01;23.30;99.90
8953;DHT22;4511;50.890;8.054;2023-08-12T14:15:27;23.30;99.90
8953;DHT22;4511;50.890;8.054;2023-08-12T14:17:54;23.30;99.90
8953;DHT22;4511;50.890;8.054;2023-08-12T14:20:21;23.20;99.90
8953;DHT22;4511;50.890;8.054;2023-08-12T14:22:48;23.00;99.90
8953;DHT22;4511;50.890;8.054;2023-08-12T14:25:14;22.90;99.90
8953;DHT22;4511;50.890;8.054;2023-08-12T14:27:41;22.90;99.90
8953;DHT22;4511;50.890;8.054;2023-08-12T14:30:11;23.20;99.90
8953;DHT22;4511;50.890;8.054;2023-08-12T14:32:38;23.70;99.90
8953;DHT22;4511;50.890;8.054;2023-08-12T14:35:05;23.90;99.90
8953;DHT22;4511;50.890;8.054;2023-08-12T14:37:32;24.10;99.90
8953;DHT22;4511;50.890;8.054;2023-08-12T14:39:59;24.20;99.90
8953;DHT22;4511;50.890;8.054;2023-08-12T14:42:26;24.50;99.90
8953;DHT22;4511;50.890;8.054;2023-08-12T14:44:52;24.80;99.90
8953;DHT22;4511;50.890;8.054;2023-08-12T14:47:20;25.40;99.90
8953;DHT22;4511;50.890;8.054;2023-08-12T14:49:47;25.70;99.90
8953;DHT22;4511;50.890;8.054;2023-08-12T14:52:16;25.30;99.90
8953;DHT22;4511;50.890;8.054;2023-08-12T14:54:44;25.40;99.90
8953;DHT22;4511;50.890;8.054;2023-08-12T14:57:11;25.10;99.90
8953;DHT22;4511;50.890;8.054;2023-08-12T14:59:37;25.10;99.90
8953;DHT22;4511;50.890;8.054;2023-08-12T15:02:04;25.50;99.90
8953;DHT22;4511;50.890;8.054;2023-08-12T15:04:33;25.70;99.90
8953;DHT22;4511;50.890;8.054;2023-08-12T15:07:00;26.30;99.90
8953;DHT22;4511;50.890;8.054;2023-08-12T15:09:27;27.30;99.90
8953;DHT22;4511;50.890;8.054;2023-08-12T15:11:57;28.10;99.90
8953;DHT22;4511;50.890;8.054;2023-08-12T15:14:25;28.70;99.90
8953;DHT22;4511;50.890;8.054;2023-08-12T15:16:51;28.80;99.90
8953;DHT22;4511;50.890;8.054;2023-08-12T15:19:18;29.00;99.90
8953;DHT22;4511;50.890;8.054;2023-08-12T15:21:46;27.80;99.90
8953;DHT22;4511;50.890;8.054;2023-08-12T15:24:14;27.50;99.90
8953;DHT22;4511;50.890;8.054;2023-08-12T15:26:41;28.10;99.90
8953;DHT22;4511;50.890;8.054;2023-08-12T15:29:08;27.50;99.90
8953;DHT22;4511;50.890;8.054;2023-08-12T15:31:36;28.10;99.90
8953;DHT22;4511;50.890;8.054;2023-08-12T15:34:03;27.60;99.90
8953;DHT22;4511;50.890;8.054;2023-08-12T15:36:30;27.20;99.90
8953;DHT22;4511;50.890;8.054;2023-08-12T15:39:00;26.40;99.90
8953;DHT22;4511;50.890;8.054;2023-08-12T15:41:28;25.50;99.90
8953;DHT22;4511;50.890;8.054;2023-08-12T15:43:55;25.10;99.90
8953;DHT22;4511;50.890;8.054;2023-08-12T15:46:21;24.80;99.90
8953;DHT22;4511;50.890;8.054;2023-08-12T15:48:48;24.40;99.90
8953;DHT22;4511;50.890;8.054;2023-08-12T15:51:15;24.00;99.90
8953;DHT22;4511;50.890;8.054;2023-08-12T15:53:41;23.80;99.90
8953;DHT22;4511;50.890;8.054;2023-08-12T15:56:10;23.00;99.90
8953;DHT22;4511;50.890;8.054;2023-08-12T15:58:36;22.70;99.90
8953;DHT22;4511;50.890;8.054;2023-08-12T16:01:03;23.50;99.90
8953;DHT22;4511;50.890;8.054;2023-08-12T16:03:30;24.00;99.90